Seaexpressii — HO4619 — position and weather

sailwx.info

Track history (hours):
 
Tides and Currents Weather Stations Pressure Air Temp Water Temp Dewpoint Dewpoint Depression Visibility Wind Speed Wind Dir Waves Ship Positions

Seaexpressii

Last reported at 2018-Jan-22 02:10 UTC. Time now 2018-Jan-22 15:41 UTC.
Position N 24°29' W 077°02'.

Length 37 m; draft 2.1 m.

Type: Cargo ship. MMSI: 356449000.

Date/timePositionNaut miles runAvg speedWind from/ knotsBaromVisibWave heightAir tempDewpointWater temp
2018-Jan-22 02:10N 24°29' W 077°02'2 9.0
2018-Jan-22 01:58N 24°30' W 077°04'5 9.2
2018-Jan-22 01:24N 24°33' W 077°08'158 8.5
2018-Jan-21 06:47N 25°55' W 079°38'2 8.1
2018-Jan-21 06:30N 25°56' W 079°41'4 7.7
2018-Jan-21 06:00N 25°57' W 079°45'4 7.5
2018-Jan-21 05:30N 25°58' W 079°49'4 7.9
2018-Jan-21 05:00N 25°60' W 079°53'4 8.7
2018-Jan-21 04:30N 26°02' W 079°57'4 9.0
2018-Jan-21 04:00N 26°04' W 080°02'5 9.4
2018-Jan-21 03:30N 26°06' W 080°06'2 4.9
2018-Jan-21 03:01N 26°04' W 080°08'0 0.1
2018-Jan-21 02:30N 26°04' W 080°08'0 0.0
2018-Jan-21 02:00N 26°04' W 080°08'0 0.0
2018-Jan-21 01:30N 26°04' W 080°08'0 0.0
2018-Jan-21 01:00N 26°04' W 080°08'0 0.0
2018-Jan-21 00:30N 26°04' W 080°08'0 0.0
2018-Jan-21 00:00N 26°04' W 080°08'0 0.0
2018-Jan-20 23:30N 26°04' W 080°08'0 0.0
2018-Jan-20 23:00N 26°04' W 080°08'0 0.0
2018-Jan-20 22:30N 26°04' W 080°08'0 0.0
2018-Jan-20 22:00N 26°04' W 080°08'0 0.0
2018-Jan-20 21:30N 26°04' W 080°08'0 0.5
2018-Jan-20 21:00N 26°04' W 080°08'3 5.1
2018-Jan-20 20:30N 26°06' W 080°06'510.6
2018-Jan-20 20:00N 26°04' W 079°60'611.3
2018-Jan-20 19:30N 26°02' W 079°54'611.4
2018-Jan-20 19:00N 25°59' W 079°49'611.6
2018-Jan-20 18:30N 25°56' W 079°43'8 0.2
2018-Jan-18 22:17N 25°50' W 079°37'2 7.5
2018-Jan-18 22:00N 25°52' W 079°38'4 7.4
2018-Jan-18 21:30N 25°55' W 079°40'4 7.3
2018-Jan-18 21:00N 25°57' W 079°44'4 7.9
2018-Jan-18 20:30N 25°59' W 079°48'4 8.0
2018-Jan-18 20:00N 25°60' W 079°52'4 8.6
2018-Jan-18 19:30N 26°02' W 079°57'5 9.4
2018-Jan-18 19:00N 26°04' W 080°01'5 9.7
2018-Jan-18 18:30N 26°06' W 080°06'2 3.5
2018-Jan-18 18:01N 26°04' W 080°07'1 1.8
2018-Jan-18 17:30N 26°04' W 080°08'0 0.0
2018-Jan-18 17:00N 26°04' W 080°08'0 0.0
2018-Jan-18 16:30N 26°04' W 080°08'0 0.0
2018-Jan-18 16:00N 26°04' W 080°08'0 0.0
2018-Jan-18 15:30N 26°04' W 080°08'0 0.0
2018-Jan-18 15:00N 26°04' W 080°08'0 0.0
2018-Jan-18 14:30N 26°04' W 080°08'0 0.0
2018-Jan-18 14:00N 26°04' W 080°08'1 2.3
2018-Jan-18 13:30N 26°04' W 080°07'4 7.2
2018-Jan-18 13:00N 26°05' W 080°03'5 9.4
2018-Jan-18 12:30N 26°05' W 079°58'5 9.3
2018-Jan-18 12:00N 26°07' W 079°53'5 8.9
2018-Jan-18 11:30N 26°08' W 079°48'4 8.7
2018-Jan-18 11:00N 26°09' W 079°43'4 8.6
2018-Jan-18 10:29N 26°10' W 079°38'4 8.4
2018-Jan-18 10:00N 26°11' W 079°34'  
2018-Jan-12 12:53N 25°44' W 078°47'4 9.5
2018-Jan-12 12:29N 25°45' W 078°51'13 9.1
2018-Jan-12 11:02N 25°49' W 079°05'0 9.3
2018-Jan-12 11:00N 25°49' W 079°05'4 8.8
2018-Jan-12 10:30N 25°50' W 079°10'5 9.2
2018-Jan-12 10:00N 25°51' W 079°15'5 9.2
2018-Jan-12 09:30N 25°52' W 079°20'4 8.9
2018-Jan-12 09:00N 25°53' W 079°25'5 8.9
2018-Jan-12 08:29N 25°53' W 079°30'4 8.5
2018-Jan-12 07:59N 25°54' W 079°34'5 8.1
2018-Jan-12 07:26N 25°55' W 079°39'3 7.2
2018-Jan-12 06:59N 25°57' W 079°42'3 7.0
2018-Jan-12 06:29N 25°59' W 079°46'4 7.3
2018-Jan-12 06:00N 25°60' W 079°49'4 7.0
2018-Jan-12 05:30N 26°01' W 079°53'4 7.1
2018-Jan-12 05:00N 26°03' W 079°57'4 8.2
2018-Jan-12 04:30N 26°04' W 080°01'4 8.8
2018-Jan-12 04:00N 26°06' W 080°05'3 5.8
2018-Jan-12 03:30N 26°04' W 080°08'0 0.2
2018-Jan-12 03:00N 26°04' W 080°08'0 0.0
2018-Jan-12 02:30N 26°04' W 080°08'  
Track history (hours):
 
Tides and Currents Weather Stations Pressure Air Temp Water Temp Dewpoint Dewpoint Depression Visibility Wind Speed Wind Dir Waves Ship Positions

Seaexpressii

Last reported at 2018-Jan-22 02:10 UTC. Time now 2018-Jan-22 15:41 UTC.
Position N 24°29' W 077°02'.

Length 37 m; draft 2.1 m.

Type: Cargo ship. MMSI: 356449000.

Date/timePositionNaut miles runAvg speedWind from/ knotsBaromVisibWave heightAir tempDewpointWater temp
2018-Jan-22 02:10N 24°29' W 077°02'2 9.0
2018-Jan-22 01:58N 24°30' W 077°04'5 9.2
2018-Jan-22 01:24N 24°33' W 077°08'158 8.5
2018-Jan-21 06:47N 25°55' W 079°38'2 8.1
2018-Jan-21 06:30N 25°56' W 079°41'4 7.7
2018-Jan-21 06:00N 25°57' W 079°45'4 7.5
2018-Jan-21 05:30N 25°58' W 079°49'4 7.9
2018-Jan-21 05:00N 25°60' W 079°53'4 8.7
2018-Jan-21 04:30N 26°02' W 079°57'4 9.0
2018-Jan-21 04:00N 26°04' W 080°02'5 9.4
2018-Jan-21 03:30N 26°06' W 080°06'2 4.9
2018-Jan-21 03:01N 26°04' W 080°08'0 0.1
2018-Jan-21 02:30N 26°04' W 080°08'0 0.0
2018-Jan-21 02:00N 26°04' W 080°08'0 0.0
2018-Jan-21 01:30N 26°04' W 080°08'0 0.0
2018-Jan-21 01:00N 26°04' W 080°08'0 0.0
2018-Jan-21 00:30N 26°04' W 080°08'0 0.0
2018-Jan-21 00:00N 26°04' W 080°08'0 0.0
2018-Jan-20 23:30N 26°04' W 080°08'0 0.0
2018-Jan-20 23:00N 26°04' W 080°08'0 0.0
2018-Jan-20 22:30N 26°04' W 080°08'0 0.0
2018-Jan-20 22:00N 26°04' W 080°08'0 0.0
2018-Jan-20 21:30N 26°04' W 080°08'0 0.5
2018-Jan-20 21:00N 26°04' W 080°08'3 5.1
2018-Jan-20 20:30N 26°06' W 080°06'510.6
2018-Jan-20 20:00N 26°04' W 079°60'611.3
2018-Jan-20 19:30N 26°02' W 079°54'611.4
2018-Jan-20 19:00N 25°59' W 079°49'611.6
2018-Jan-20 18:30N 25°56' W 079°43'8 0.2
2018-Jan-18 22:17N 25°50' W 079°37'2 7.5
2018-Jan-18 22:00N 25°52' W 079°38'4 7.4
2018-Jan-18 21:30N 25°55' W 079°40'4 7.3
2018-Jan-18 21:00N 25°57' W 079°44'4 7.9
2018-Jan-18 20:30N 25°59' W 079°48'4 8.0
2018-Jan-18 20:00N 25°60' W 079°52'4 8.6
2018-Jan-18 19:30N 26°02' W 079°57'5 9.4
2018-Jan-18 19:00N 26°04' W 080°01'5 9.7
2018-Jan-18 18:30N 26°06' W 080°06'2 3.5
2018-Jan-18 18:01N 26°04' W 080°07'1 1.8
2018-Jan-18 17:30N 26°04' W 080°08'0 0.0
2018-Jan-18 17:00N 26°04' W 080°08'0 0.0
2018-Jan-18 16:30N 26°04' W 080°08'0 0.0
2018-Jan-18 16:00N 26°04' W 080°08'0 0.0
2018-Jan-18 15:30N 26°04' W 080°08'0 0.0
2018-Jan-18 15:00N 26°04' W 080°08'0 0.0
2018-Jan-18 14:30N 26°04' W 080°08'0 0.0
2018-Jan-18 14:00N 26°04' W 080°08'1 2.3
2018-Jan-18 13:30N 26°04' W 080°07'4 7.2
2018-Jan-18 13:00N 26°05' W 080°03'5 9.4
2018-Jan-18 12:30N 26°05' W 079°58'5 9.3
2018-Jan-18 12:00N 26°07' W 079°53'5 8.9
2018-Jan-18 11:30N 26°08' W 079°48'4 8.7
2018-Jan-18 11:00N 26°09' W 079°43'4 8.6
2018-Jan-18 10:29N 26°10' W 079°38'4 8.4
2018-Jan-18 10:00N 26°11' W 079°34'  
2018-Jan-12 12:53N 25°44' W 078°47'4 9.5
2018-Jan-12 12:29N 25°45' W 078°51'13 9.1
2018-Jan-12 11:02N 25°49' W 079°05'0 9.3
2018-Jan-12 11:00N 25°49' W 079°05'4 8.8
2018-Jan-12 10:30N 25°50' W 079°10'5 9.2
2018-Jan-12 10:00N 25°51' W 079°15'5 9.2
2018-Jan-12 09:30N 25°52' W 079°20'4 8.9
2018-Jan-12 09:00N 25°53' W 079°25'5 8.9
2018-Jan-12 08:29N 25°53' W 079°30'4 8.5
2018-Jan-12 07:59N 25°54' W 079°34'5 8.1
2018-Jan-12 07:26N 25°55' W 079°39'3 7.2
2018-Jan-12 06:59N 25°57' W 079°42'3 7.0
2018-Jan-12 06:29N 25°59' W 079°46'4 7.3
2018-Jan-12 06:00N 25°60' W 079°49'4 7.0
2018-Jan-12 05:30N 26°01' W 079°53'4 7.1
2018-Jan-12 05:00N 26°03' W 079°57'4 8.2
2018-Jan-12 04:30N 26°04' W 080°01'4 8.8
2018-Jan-12 04:00N 26°06' W 080°05'3 5.8
2018-Jan-12 03:30N 26°04' W 080°08'0 0.2
2018-Jan-12 03:00N 26°04' W 080°08'0 0.0
2018-Jan-12 02:30N 26°04' W 080°08'  

Dump ship's entire track history